Time;durP1;ratioP1;P1;durP2;ratioP2;P2;SDS_P1;SDS_P2;PMS_P1;PMS_P2;Temp;Humidity;BMP_temperature;BMP_pressure;BME280_temperature;BME280_humidity;BME280_pressure;Samples;Min_cycle;Max_cycle;Signal;HPM_P1;HPM_P2
2022/01/08 12:05:30;;;;;;;1587.47;101.97;;;;;;;-143.84;100.00;44447.41;5409886;23;20929;-69
2022/01/08 12:08:15;;;;;;;827.93;50.37;;;;;;;-143.84;100.00;44441.69;4992570;28;20539;-69
2022/01/08 12:10:56;;;;;;;1502.47;96.30;;;;;;;-143.84;100.00;44430.28;4990824;28;20445;-69
2022/01/08 12:13:44;;;;;;;939.20;67.57;;;;;;;-143.84;100.00;44426.47;4991543;28;20472;-69
2022/01/08 12:16:33;;;;;;;486.87;34.67;;;;;;;-143.84;100.00;44426.47;4990995;28;20961;-69
2022/01/08 12:19:01;;;;;;;1200.43;82.17;;;;;;;-143.84;100.00;44426.47;4991024;28;20479;-69
2022/01/08 12:21:35;;;;;;;736.20;48.90;;;;;;;-143.84;100.00;44424.56;4991491;28;20433;-69
2022/01/08 12:24:33;;;;;;;1450.13;94.00;;;;;;;-143.84;100.00;44430.28;4991191;28;20441;-69
2022/01/08 12:27:01;;;;;;;1307.03;84.80;;;;;;;-143.84;100.00;44430.28;4985138;28;20493;-69
2022/01/08 12:29:39;;;;;;;956.90;58.70;;;;;;;-143.84;100.00;44443.59;4991179;28;20443;-69
2022/01/08 12:32:35;;;;;;;971.90;56.60;;;;;;;-143.84;100.00;44441.69;4991088;28;20437;-69
2022/01/08 12:35:24;;;;;;;1121.77;69.37;;;;;;;-143.84;100.00;44449.31;4989924;28;20501;-71
2022/01/08 12:37:55;;;;;;;848.37;47.17;;;;;;;-143.84;100.00;44451.22;4988436;28;20458;-69
2022/01/08 12:40:37;;;;;;;1649.23;101.23;;;;;;;-143.84;100.00;44458.81;4989986;28;20533;-70
2022/01/08 12:43:32;;;;;;;1003.83;65.83;;;;;;;-143.84;100.00;44458.81;4987035;28;20462;-67
2022/01/08 12:46:18;;;;;;;538.63;34.53;;;;;;;-143.84;100.00;44451.22;4976105;28;20466;-67
2022/01/08 12:49:11;;;;;;;883.67;53.77;;;;;;;-143.84;100.00;44451.22;4979846;28;20930;-67
2022/01/08 12:51:43;;;;;;;496.63;34.70;;;;;;;-143.84;100.00;44456.94;4972076;28;20477;-67
2022/01/08 12:54:13;;;;;;;836.57;46.63;;;;;;;-143.84;100.00;44460.72;4987159;28;20465;-67
2022/01/08 12:56:48;;;;;;;1020.13;59.33;;;;;;;-143.84;100.00;44455.03;4990129;28;20892;-67
2022/01/08 12:59:16;;;;;;;1019.57;64.03;;;;;;;-143.84;100.00;44458.81;4991050;28;20597;-67
2022/01/08 13:01:47;;;;;;;831.17;54.40;;;;;;;-143.84;100.00;44460.72;4988141;28;20457;-67
2022/01/08 13:04:17;;;;;;;1250.60;74.97;;;;;;;-143.84;100.00;44462.63;4990951;28;20465;-67
2022/01/08 13:06:45;;;;;;;681.23;39.33;;;;;;;-143.84;100.00;44464.53;4991257;28;21391;-67
2022/01/08 13:09:14;;;;;;;1356.97;82.83;;;;;;;-143.84;100.00;44460.72;4990059;28;20966;-67
2022/01/08 13:11:43;;;;;;;523.70;33.57;;;;;;;-143.84;100.00;44462.63;4990119;28;20442;-67
2022/01/08 13:14:14;;;;;;;1074.50;63.00;;;;;;;-143.84;100.00;44456.94;4989024;28;20439;-67
2022/01/08 13:16:43;;;;;;;1167.37;74.50;;;;;;;-143.84;100.00;44458.81;4989048;28;20447;-67
2022/01/08 13:19:13;;;;;;;1022.40;60.20;;;;;;;-143.84;100.00;44458.81;4989640;28;20455;-67
2022/01/08 13:21:43;;;;;;;846.73;53.00;;;;;;;-143.84;100.00;44462.63;4989273;28;20992;-67
2022/01/08 13:24:16;;;;;;;574.93;36.60;;;;;;;-143.84;100.00;44458.81;4986117;28;20440;-68
2022/01/08 13:26:46;;;;;;;750.20;53.00;;;;;;;-143.84;100.00;44451.22;4988361;28;20481;-69
2022/01/08 13:29:22;;;;;;;694.90;47.63;;;;;;;-143.84;100.00;44449.31;4988151;28;20502;-69
2022/01/08 13:31:51;;;;;;;655.40;42.73;;;;;;;-143.84;100.00;44447.41;4986946;28;20432;-70
2022/01/08 13:34:19;;;;;;;590.67;40.17;;;;;;;-143.84;100.00;44451.22;4989146;28;20873;-68
2022/01/08 13:36:58;;;;;;;472.37;32.67;;;;;;;-143.84;100.00;44441.69;4986642;28;20501;-68
2022/01/08 13:39:36;;;;;;;585.53;40.40;;;;;;;-143.84;100.00;44428.38;4989647;28;20591;-68
2022/01/08 13:42:12;;;;;;;1097.27;66.20;;;;;;;-143.84;100.00;44426.47;4989096;28;20489;-68
2022/01/08 13:44:40;;;;;;;684.80;45.97;;;;;;;-143.84;100.00;44422.66;4988661;28;20868;-68
2022/01/08 13:47:18;;;;;;;639.73;39.07;;;;;;;-143.84;100.00;44420.75;4985981;28;20482;-68
2022/01/08 13:49:47;;;;;;;862.83;57.80;;;;;;;-143.84;100.00;44416.94;4988316;28;20498;-68
2022/01/08 13:52:19;;;;;;;649.13;43.40;;;;;;;-143.84;100.00;44403.63;4991678;28;20453;-68
2022/01/08 13:54:48;;;;;;;888.83;61.47;;;;;;;-143.84;100.00;44403.63;4990879;28;20481;-68
2022/01/08 13:57:17;;;;;;;308.13;24.37;;;;;;;-143.84;100.00;44405.53;4995550;28;20454;-68
2022/01/08 13:59:44;;;;;;;810.07;46.47;;;;;;;-143.84;100.00;44403.63;4996154;28;20554;-76
2022/01/08 14:02:32;;;;;;;992.13;59.67;;;;;;;-143.84;100.00;44415.03;4995404;28;20454;-67
2022/01/08 14:05:04;;;;;;;1321.13;98.70;;;;;;;-143.84;100.00;44415.03;4997782;28;21341;-67
2022/01/08 14:07:36;;;;;;;1106.67;70.30;;;;;;;-143.84;100.00;44426.47;4995817;28;20477;-67
2022/01/08 14:10:06;;;;;;;1207.63;76.47;;;;;;;-143.84;100.00;44422.66;4995943;28;20509;-73
2022/01/08 14:12:34;;;;;;;1086.77;64.23;;;;;;;-143.84;100.00;44415.03;4998799;28;20442;-73
2022/01/08 14:15:04;;;;;;;941.10;53.00;;;;;;;-143.84;100.00;44409.34;4999492;28;20486;-72
2022/01/08 14:17:32;;;;;;;1320.30;94.73;;;;;;;-143.84;100.00;44407.44;4980112;28;20450;-72
2022/01/08 14:20:00;;;;;;;874.20;55.53;;;;;;;-143.84;100.00;44413.13;4996286;28;20467;-72
2022/01/08 14:22:28;;;;;;;939.43;118.20;;;;;;;-143.84;100.00;44422.66;4994969;28;20446;-66
2022/01/08 14:24:57;;;;;;;930.67;51.50;;;;;;;-143.84;100.00;44424.56;5000859;28;20454;-66
2022/01/08 14:27:27;;;;;;;1325.97;88.10;;;;;;;-143.84;100.00;44424.56;5004751;28;20523;-66
2022/01/08 14:30:10;;;;;;;1089.87;62.90;;;;;;;-143.84;100.00;44416.94;4999322;28;20462;-66
2022/01/08 14:32:38;;;;;;;864.53;54.87;;;;;;;-143.84;100.00;44409.34;5006912;28;20468;-66
2022/01/08 14:35:07;;;;;;;619.53;40.53;;;;;;;-143.84;100.00;44416.94;5000875;28;20450;-68
2022/01/08 14:37:38;;;;;;;1453.00;94.03;;;;;;;-143.84;100.00;44416.94;4992448;28;20542;-68
2022/01/08 14:40:19;;;;;;;1417.77;83.90;;;;;;;-143.84;100.00;44420.75;4991634;28;20442;-67
2022/01/08 14:42:56;;;;;;;1179.03;65.77;;;;;;;-143.84;100.00;44426.47;4974007;28;20447;-68
2022/01/08 14:45:23;;;;;;;109.83;11.27;;;;;;;-143.84;100.00;44416.94;4992866;28;20474;-74
2022/01/08 14:47:50;;;;;;;759.50;46.47;;;;;;;-143.84;100.00;44422.66;4996565;28;20540;-75
2022/01/08 14:50:23;;;;;;;761.03;50.50;;;;;;;-143.84;100.00;44420.75;5006846;28;20450;-74
2022/01/08 14:52:50;;;;;;;1359.00;88.47;;;;;;;-143.84;100.00;44424.56;4999220;28;20457;-73
2022/01/08 14:55:20;;;;;;;944.27;62.70;;;;;;;-143.84;100.00;44420.75;4998993;28;20454;-74
2022/01/08 14:57:49;;;;;;;1021.20;76.60;;;;;;;-143.84;100.00;44418.84;5000985;28;20447;-73
2022/01/08 15:00:20;;;;;;;949.97;56.17;;;;;;;-143.84;100.00;44411.22;5005693;28;20460;-74
2022/01/08 15:02:48;;;;;;;901.23;78.17;;;;;;;-143.84;100.00;44411.22;5004526;28;20463;-74
2022/01/08 15:05:15;;;;;;;780.10;51.50;;;;;;;-143.84;100.00;44396.00;5004248;28;20477;-73
2022/01/08 15:07:43;;;;;;;1384.60;79.30;;;;;;;-143.84;100.00;44394.09;5002078;28;20483;-73
2022/01/08 15:10:11;;;;;;;958.70;63.90;;;;;;;-143.84;100.00;44401.72;5000795;28;20446;-73
2022/01/08 15:12:40;;;;;;;721.20;39.70;;;;;;;-143.84;100.00;44405.53;4981753;28;20855;-73
2022/01/08 15:15:11;;;;;;;745.70;40.27;;;;;;;-143.84;100.00;44407.44;5003933;28;20441;-73
2022/01/08 15:17:38;;;;;;;875.50;51.33;;;;;;;-143.84;100.00;44407.44;5004714;28;20527;-73
2022/01/08 15:20:07;;;;;;;854.73;48.47;;;;;;;-143.84;100.00;44409.34;5004603;28;20473;-74
2022/01/08 15:22:35;;;;;;;919.37;50.47;;;;;;;-143.84;100.00;44420.75;5003090;28;20450;-73
2022/01/08 15:25:02;;;;;;;553.73;28.10;;;;;;;-143.84;100.00;44420.75;5004971;28;20454;-73
2022/01/08 15:27:30;;;;;;;928.60;52.03;;;;;;;-143.84;100.00;44434.09;4984463;28;20489;-73
2022/01/08 15:29:58;;;;;;;449.27;26.33;;;;;;;-143.84;100.00;44439.78;5000616;28;20449;-73
2022/01/08 15:32:26;;;;;;;906.53;51.80;;;;;;;-143.84;100.00;44443.59;5004042;28;20467;-73
2022/01/08 15:34:54;;;;;;;697.70;39.33;;;;;;;-143.84;100.00;44443.59;5004343;28;20573;-73
2022/01/08 15:37:21;;;;;;;1304.70;67.03;;;;;;;-143.84;100.00;44443.59;5007063;28;20450;-74
2022/01/08 15:39:48;;;;;;;876.43;47.30;;;;;;;-143.84;100.00;44443.59;5001106;28;20453;-74
2022/01/08 15:42:16;;;;;;;1034.80;58.60;;;;;;;-143.84;100.00;44437.88;5006794;28;20446;-74
2022/01/08 15:44:44;;;;;;;626.13;39.50;;;;;;;-143.84;100.00;44434.09;5006213;28;20446;-73
2022/01/08 15:47:12;;;;;;;972.67;62.47;;;;;;;-143.84;100.00;44435.97;5003819;28;20910;-73
2022/01/08 15:49:42;;;;;;;530.00;33.57;;;;;;;-143.84;100.00;44434.09;5003993;28;20977;-73
2022/01/08 15:52:09;;;;;;;679.60;35.40;;;;;;;-143.84;100.00;44432.19;5001254;28;20459;-74
2022/01/08 15:54:36;;;;;;;678.37;36.10;;;;;;;-143.84;100.00;44424.56;5004218;28;21016;-76
2022/01/08 15:57:03;;;;;;;920.60;47.83;;;;;;;-143.84;100.00;44424.56;5006091;28;21177;-76
2022/01/08 15:59:31;;;;;;;1159.87;69.87;;;;;;;-143.84;100.00;44426.47;5004742;28;20544;-74
2022/01/08 16:01:58;;;;;;;1445.73;86.73;;;;;;;-143.84;100.00;44435.97;5000580;28;20593;-71
2022/01/08 16:04:26;;;;;;;1271.53;73.20;;;;;;;-143.84;100.00;44443.59;4997370;28;20502;-73
2022/01/08 16:06:54;;;;;;;958.93;58.10;;;;;;;-143.84;100.00;44434.09;4994904;28;20470;-73
2022/01/08 16:09:21;;;;;;;572.63;33.23;;;;;;;-143.84;100.00;44432.19;5004433;28;20458;-74
2022/01/08 16:11:49;;;;;;;594.57;34.00;;;;;;;-143.84;100.00;44437.88;5005181;28;20474;-74
2022/01/08 16:14:16;;;;;;;1138.73;66.43;;;;;;;-143.84;100.00;44443.59;5007945;28;20457;-74
2022/01/08 16:16:43;;;;;;;1282.77;76.80;;;;;;;-143.84;100.00;44447.41;5003910;28;20451;-73
2022/01/08 16:19:10;;;;;;;841.73;49.97;;;;;;;-143.84;100.00;44449.31;5002297;28;20473;-73
2022/01/08 16:21:38;;;;;;;1074.33;61.63;;;;;;;-143.84;100.00;44445.50;5006900;28;20463;-73
2022/01/08 16:24:07;;;;;;;1095.60;63.30;;;;;;;-143.84;100.00;44437.88;5009873;28;20453;-73
2022/01/08 16:26:34;;;;;;;1024.13;56.57;;;;;;;-143.84;100.00;44451.22;5004661;28;20944;-72
2022/01/08 16:29:02;;;;;;;1144.23;61.63;;;;;;;-143.84;100.00;44456.94;5005000;28;20477;-73
2022/01/08 16:31:29;;;;;;;356.20;20.77;;;;;;;-143.84;100.00;44458.81;5001737;28;20448;-72
2022/01/08 16:33:57;;;;;;;1042.10;58.33;;;;;;;-143.84;100.00;44449.31;5002339;28;20543;-73
2022/01/08 16:36:25;;;;;;;945.27;49.80;;;;;;;-143.84;100.00;44441.69;5004109;28;21420;-74
2022/01/08 16:38:53;;;;;;;911.07;51.60;;;;;;;-143.84;100.00;44439.78;5007425;28;20450;-75
2022/01/08 16:41:21;;;;;;;979.27;61.83;;;;;;;-143.84;100.00;44447.41;5004536;28;20836;-74
2022/01/08 16:43:49;;;;;;;771.43;45.83;;;;;;;-143.84;100.00;44445.50;5009085;28;20458;-70
2022/01/08 16:46:17;;;;;;;721.60;40.80;;;;;;;-143.84;100.00;44439.78;5004108;28;20451;-70
2022/01/08 16:48:44;;;;;;;965.27;58.23;;;;;;;-143.84;100.00;44435.97;5009295;28;20577;-70
2022/01/08 16:51:12;;;;;;;1273.67;76.20;;;;;;;-143.84;100.00;44437.88;5009821;28;20454;-69
2022/01/08 16:53:41;;;;;;;1011.97;56.37;;;;;;;-143.84;100.00;44443.59;5001546;28;20462;-69
2022/01/08 16:56:09;;;;;;;1155.67;68.70;;;;;;;-143.84;100.00;44449.31;5009505;28;20462;-69
2022/01/08 16:58:37;;;;;;;771.37;46.10;;;;;;;-143.84;100.00;44441.69;5008886;28;20562;-69
2022/01/08 17:01:05;;;;;;;182.53;13.63;;;;;;;-143.84;100.00;44443.59;5009416;28;20971;-69
2022/01/08 17:03:32;;;;;;;1381.23;79.67;;;;;;;-143.84;100.00;44449.31;5009663;28;20461;-70
2022/01/08 17:05:59;;;;;;;924.13;49.90;;;;;;;-143.84;100.00;44455.03;5008943;28;20474;-69
2022/01/08 17:08:27;;;;;;;1395.00;81.63;;;;;;;-143.84;100.00;44456.94;4970679;28;20500;-69
2022/01/08 17:10:56;;;;;;;1407.10;81.33;;;;;;;-143.84;100.00;44456.94;4970603;28;20463;-69
2022/01/08 17:13:24;;;;;;;1415.23;87.00;;;;;;;-143.84;100.00;44458.81;4970709;28;20450;-69
2022/01/08 17:15:54;;;;;;;1214.43;76.77;;;;;;;-143.84;100.00;44464.53;4970690;28;20447;-69
2022/01/08 17:18:22;;;;;;;1217.33;70.03;;;;;;;-143.84;100.00;44462.63;4970653;28;20494;-69
2022/01/08 17:20:50;;;;;;;1083.63;63.27;;;;;;;-143.84;100.00;44460.72;4970901;28;20455;-69
2022/01/08 17:23:17;;;;;;;1175.07;71.87;;;;;;;-143.84;100.00;44458.81;4970452;28;20459;-69
2022/01/08 17:25:44;;;;;;;874.33;49.17;;;;;;;-143.84;100.00;44455.03;4970601;28;20443;-69
2022/01/08 17:28:12;;;;;;;860.63;58.93;;;;;;;-143.84;100.00;44455.03;4970691;28;20487;-69
2022/01/08 17:30:39;;;;;;;1953.20;149.10;;;;;;;-143.84;100.00;44453.13;4970579;28;20448;-69
2022/01/08 17:33:08;;;;;;;1130.40;65.90;;;;;;;-143.84;100.00;44458.81;4971255;28;20449;-75
2022/01/08 17:35:35;;;;;;;875.63;50.43;;;;;;;-143.84;100.00;44458.81;4971231;28;20459;-75
2022/01/08 17:38:02;;;;;;;1795.43;116.50;;;;;;;-143.84;100.00;44464.53;4971474;28;20441;-75
2022/01/08 17:40:30;;;;;;;635.77;38.40;;;;;;;-143.84;100.00;44462.63;4971188;28;20893;-75
2022/01/08 17:42:57;;;;;;;1750.03;111.13;;;;;;;-143.84;100.00;44458.81;4970767;28;20813;-75
2022/01/08 17:45:24;;;;;;;720.27;42.40;;;;;;;-143.84;100.00;44456.94;4970951;28;20436;-75
2022/01/08 17:47:51;;;;;;;1179.37;69.67;;;;;;;-143.84;100.00;44449.31;4970886;28;20705;-75
2022/01/08 17:50:20;;;;;;;1350.50;89.50;;;;;;;-143.84;100.00;44445.50;4970771;28;20950;-75
2022/01/08 17:52:47;;;;;;;1214.07;74.20;;;;;;;-143.84;100.00;44449.31;4970711;28;20505;-75
2022/01/08 17:55:14;;;;;;;1087.20;71.57;;;;;;;-143.84;100.00;44456.94;4970718;28;20448;-75
2022/01/08 17:57:42;;;;;;;1287.00;80.57;;;;;;;-143.84;100.00;44455.03;4970815;28;20440;-75
2022/01/08 18:00:14;;;;;;;1148.03;65.17;;;;;;;-143.84;100.00;44453.13;4969817;28;20439;-75
2022/01/08 18:02:42;;;;;;;762.10;45.10;;;;;;;-143.84;100.00;44447.41;4970167;28;20467;-74
2022/01/08 18:05:10;;;;;;;769.63;49.33;;;;;;;-143.84;100.00;44432.19;4972321;28;20483;-74
2022/01/08 18:07:39;;;;;;;584.23;34.67;;;;;;;-143.84;100.00;44435.97;4972284;28;20644;-73
2022/01/08 18:10:08;;;;;;;405.50;26.73;;;;;;;-143.84;100.00;44428.38;4972397;28;20519;-74
2022/01/08 18:12:36;;;;;;;1143.70;63.90;;;;;;;-143.84;100.00;44422.66;4972167;28;20450;-73
2022/01/08 18:15:04;;;;;;;703.13;42.47;;;;;;;-143.84;100.00;44428.38;4972596;28;20452;-74
2022/01/08 18:17:31;;;;;;;450.33;29.73;;;;;;;-143.84;100.00;44420.75;4972588;28;20778;-74
2022/01/08 18:19:59;;;;;;;541.13;35.20;;;;;;;-143.84;100.00;44418.84;4971938;28;20452;-74
2022/01/08 18:22:26;;;;;;;277.63;27.57;;;;;;;-143.84;100.00;44426.47;4972287;28;20840;-74
2022/01/08 18:24:55;;;;;;;672.63;40.30;;;;;;;-143.84;100.00;44416.94;4971344;28;20467;-74
2022/01/08 18:27:23;;;;;;;675.50;41.57;;;;;;;-143.84;100.00;44413.13;4970687;28;20567;-74
2022/01/08 18:29:51;;;;;;;55.93;16.00;;;;;;;-143.84;100.00;44405.53;4970254;28;20491;-75
2022/01/08 18:32:18;;;;;;;732.37;51.13;;;;;;;-143.84;100.00;44411.22;4969941;28;20452;-75
2022/01/08 18:34:45;;;;;;;310.90;27.90;;;;;;;-143.84;100.00;44409.34;4970038;28;20444;-75
2022/01/08 18:37:13;;;;;;;286.43;24.30;;;;;;;-143.84;100.00;44384.59;4969565;28;21143;-75
2022/01/08 18:39:40;;;;;;;335.70;29.17;;;;;;;-143.84;100.00;44371.25;4969672;28;20459;-75
2022/01/08 18:42:09;;;;;;;156.43;18.23;;;;;;;-143.84;100.00;44369.34;4970016;28;20445;-75
2022/01/08 18:44:36;;;;;;;418.27;31.80;;;;;;;-143.84;100.00;44388.38;4970134;28;20440;-75
2022/01/08 18:47:04;;;;;;;697.47;44.33;;;;;;;-143.84;100.00;44386.47;4969971;28;20449;-75
2022/01/08 18:49:33;;;;;;;301.97;21.80;;;;;;;-143.84;100.00;44386.47;4969941;28;20491;-75
2022/01/08 18:52:00;;;;;;;548.50;35.67;;;;;;;-143.84;100.00;44388.38;4969622;28;20487;-72
2022/01/08 18:54:27;;;;;;;341.33;21.00;;;;;;;-143.84;100.00;44371.25;4969613;28;20448;-73
2022/01/08 18:56:55;;;;;;;803.87;48.57;;;;;;;-143.84;100.00;44325.56;4969859;28;20471;-69
2022/01/08 18:59:26;;;;;;;501.63;31.43;;;;;;;-143.84;100.00;44317.94;4969529;28;20822;-69
2022/01/08 19:01:53;;;;;;;368.27;27.17;;;;;;;-143.84;100.00;44357.94;4969126;28;20826;-69
2022/01/08 19:04:20;;;;;;;541.90;33.73;;;;;;;-143.84;100.00;44338.88;4968489;28;20538;-69
2022/01/08 19:06:47;;;;;;;126.77;18.40;;;;;;;-143.84;100.00;44336.97;4968863;28;20445;-69
2022/01/08 19:09:14;;;;;;;705.47;44.87;;;;;;;-143.84;100.00;44336.97;4968494;28;21028;-69
2022/01/08 19:11:42;;;;;;;445.10;27.83;;;;;;;-143.84;100.00;44327.47;4970767;28;20481;-69
2022/01/08 19:14:09;;;;;;;212.13;20.40;;;;;;;-143.84;100.00;44336.97;4973304;28;20444;-74
2022/01/08 19:16:37;;;;;;;454.80;27.07;;;;;;;-143.84;100.00;44321.75;4973626;28;20451;-68
2022/01/08 19:19:05;;;;;;;785.77;45.23;;;;;;;-143.84;100.00;44297.00;4973749;28;20956;-74
2022/01/08 19:21:33;;;;;;;807.13;46.63;;;;;;;-143.84;100.00;44304.63;4973786;28;20449;-74
2022/01/08 19:24:00;;;;;;;473.93;25.83;;;;;;;-143.84;100.00;44295.09;4974196;28;20985;-74
2022/01/08 19:26:28;;;;;;;419.83;28.93;;;;;;;-143.84;100.00;44295.09;4975034;28;20970;-74
2022/01/08 19:28:56;;;;;;;483.00;33.07;;;;;;;-143.84;100.00;44306.53;4974561;28;20474;-74
2022/01/08 19:31:23;;;;;;;437.67;25.87;;;;;;;-143.84;100.00;44316.03;4974534;28;20443;-74
2022/01/08 19:33:52;;;;;;;420.00;27.70;;;;;;;-143.84;100.00;44314.13;4974754;28;20808;-74
2022/01/08 19:36:19;;;;;;;611.13;36.90;;;;;;;-143.84;100.00;44302.72;4974806;28;20467;-74
2022/01/08 19:38:46;;;;;;;276.13;21.13;;;;;;;-143.84;100.00;44319.84;4975097;28;21273;-74
2022/01/08 19:41:14;;;;;;;486.23;30.30;;;;;;;-143.84;100.00;44344.59;4975086;28;20433;-74
2022/01/08 19:43:42;;;;;;;550.53;33.87;;;;;;;-143.84;100.00;44342.69;4974709;28;20440;-74
2022/01/08 19:46:10;;;;;;;556.03;30.13;;;;;;;-143.84;100.00;44319.84;4974325;28;20456;-74
2022/01/08 19:48:37;;;;;;;649.73;32.63;;;;;;;-143.84;100.00;44308.44;4974846;28;20998;-74
2022/01/08 19:51:07;;;;;;;564.87;33.07;;;;;;;-143.84;100.00;44300.81;4974945;28;20518;-74
2022/01/08 19:53:34;;;;;;;216.17;19.73;;;;;;;-143.84;100.00;44308.44;4974657;28;20455;-74
2022/01/08 19:56:01;;;;;;;254.73;21.07;;;;;;;-143.84;100.00;44316.03;4974560;28;20459;-74
2022/01/08 19:58:29;;;;;;;471.50;26.87;;;;;;;-143.84;100.00;44312.25;4974785;28;20456;-74
2022/01/08 20:00:56;;;;;;;570.30;32.20;;;;;;;-143.84;100.00;44300.81;4974711;28;20444;-74
2022/01/08 20:03:23;;;;;;;585.20;35.00;;;;;;;-143.84;100.00;44293.19;4974080;28;20436;-74
2022/01/08 20:05:53;;;;;;;941.37;53.37;;;;;;;-143.84;100.00;44283.69;4983332;28;20491;-74
2022/01/08 20:08:23;;;;;;;278.73;18.40;;;;;;;-143.84;100.00;44253.22;4993680;28;20472;-73
2022/01/08 20:10:51;;;;;;;144.20;15.37;;;;;;;-143.84;100.00;44243.69;4993597;28;20896;-74
2022/01/08 20:13:20;;;;;;;842.37;48.50;;;;;;;-143.84;100.00;44234.19;4993499;28;20447;-74
2022/01/08 20:15:47;;;;;;;382.53;23.27;;;;;;;-143.84;100.00;44234.19;4993836;28;20826;-74
2022/01/08 20:18:15;;;;;;;802.90;44.67;;;;;;;-143.84;100.00;44232.28;4993653;28;20519;-74
2022/01/08 20:20:42;;;;;;;411.67;25.10;;;;;;;-143.84;100.00;44238.00;4993271;28;20520;-74
2022/01/08 20:23:10;;;;;;;459.07;28.23;;;;;;;-143.84;100.00;44239.91;4993459;28;20479;-74
2022/01/08 20:25:39;;;;;;;806.00;46.93;;;;;;;-143.84;100.00;44228.47;4993627;28;20515;-74
2022/01/08 20:28:06;;;;;;;409.33;27.50;;;;;;;-143.84;100.00;44222.75;4993676;28;20447;-74
2022/01/08 20:30:34;;;;;;;532.47;33.70;;;;;;;-143.84;100.00;44228.47;4993454;28;20505;-74
2022/01/08 20:33:01;;;;;;;367.27;26.60;;;;;;;-143.84;100.00;44236.09;4992053;28;20449;-68
2022/01/08 20:35:29;;;;;;;500.00;30.30;;;;;;;-143.84;100.00;44232.28;4991134;28;20826;-68
2022/01/08 20:38:00;;;;;;;224.23;20.30;;;;;;;-143.84;100.00;44230.38;4990994;28;20540;-68
2022/01/08 20:40:29;;;;;;;809.13;47.47;;;;;;;-143.84;100.00;44222.75;4990154;28;20526;-68
2022/01/08 20:42:58;;;;;;;135.87;15.13;;;;;;;-143.84;100.00;44217.06;4990480;28;20449;-68
2022/01/08 20:45:25;;;;;;;85.33;15.13;;;;;;;-143.84;100.00;44207.53;4990712;28;20479;-68
2022/01/08 20:47:53;;;;;;;157.30;16.07;;;;;;;-143.84;100.00;44203.72;4990688;28;20557;-68
2022/01/08 20:50:21;;;;;;;63.63;13.70;;;;;;;-143.84;100.00;44190.41;4990615;28;20832;-68
2022/01/08 20:52:49;;;;;;;107.60;16.70;;;;;;;-143.84;100.00;44173.25;4991013;28;20455;-74
2022/01/08 20:55:17;;;;;;;92.53;15.37;;;;;;;-143.84;100.00;44184.69;4993088;28;20448;-74
2022/01/08 20:57:44;;;;;;;452.83;28.00;;;;;;;-143.84;100.00;44182.78;4993132;28;20854;-74
2022/01/08 21:00:15;;;;;;;232.03;26.30;;;;;;;-143.84;100.00;44182.78;4993271;28;20463;-74
2022/01/08 21:02:42;;;;;;;133.27;23.17;;;;;;;-143.84;100.00;44177.06;4992626;28;20448;-74
2022/01/08 21:05:09;;;;;;;195.37;24.73;;;;;;;-143.84;100.00;44171.38;4992670;28;20491;-74
2022/01/08 21:07:36;;;;;;;643.73;41.70;;;;;;;-143.84;100.00;44175.16;4993071;28;20937;-74
2022/01/08 21:10:06;;;;;;;49.70;19.60;;;;;;;-143.84;100.00;44169.47;4992906;28;21018;-74
2022/01/08 21:12:35;;;;;;;75.43;15.77;;;;;;;-143.84;100.00;44163.75;4992959;28;20451;-73
2022/01/08 21:15:03;;;;;;;273.50;23.40;;;;;;;-143.84;100.00;44163.75;4992618;28;20522;-74
2022/01/08 21:17:33;;;;;;;251.57;20.93;;;;;;;-143.84;100.00;44156.13;4992447;28;20452;-74
2022/01/08 21:20:01;;;;;;;62.70;14.70;;;;;;;-143.84;100.00;44161.84;4992133;28;20451;-74
2022/01/08 21:22:28;;;;;;;269.47;19.07;;;;;;;-143.84;100.00;44150.41;4992657;28;20432;-74
2022/01/08 21:24:55;;;;;;;414.37;21.63;;;;;;;-143.84;100.00;44154.22;4992540;28;20476;-74
2022/01/08 21:27:23;;;;;;;111.57;17.83;;;;;;;-143.84;100.00;44150.41;4992388;28;20448;-73
2022/01/08 21:29:50;;;;;;;317.80;20.57;;;;;;;-143.84;100.00;44148.53;4992627;28;20528;-73
2022/01/08 21:32:18;;;;;;;90.33;17.30;;;;;;;-143.84;100.00;44137.09;4993004;28;20808;-73
2022/01/08 21:34:48;;;;;;;474.33;27.00;;;;;;;-143.84;100.00;44146.63;4991951;28;20444;-73
2022/01/08 21:37:16;;;;;;;406.23;26.90;;;;;;;-143.84;100.00;44144.72;4992869;28;20450;-73
2022/01/08 21:39:44;;;;;;;46.37;15.63;;;;;;;-143.84;100.00;44140.91;4992919;28;20464;-73
2022/01/08 21:42:12;;;;;;;270.07;23.73;;;;;;;-143.84;100.00;44144.72;4992580;28;20451;-74
2022/01/08 21:44:39;;;;;;;137.77;18.47;;;;;;;-143.84;100.00;44125.69;4992229;28;20449;-74
2022/01/08 21:47:08;;;;;;;37.67;15.23;;;;;;;-143.84;100.00;44118.06;4992429;28;20444;-74
2022/01/08 21:49:36;;;;;;;268.63;21.97;;;;;;;-143.84;100.00;44127.56;4992089;28;20475;-74
2022/01/08 21:52:07;;;;;;;160.93;23.00;;;;;;;-143.84;100.00;44116.16;4992148;28;20452;-74
2022/01/08 21:54:34;;;;;;;502.63;34.77;;;;;;;-143.84;100.00;44116.16;4992169;28;20434;-74
2022/01/08 21:57:01;;;;;;;279.87;27.40;;;;;;;-143.84;100.00;44110.44;4990845;28;20452;-69
2022/01/08 21:59:28;;;;;;;422.90;28.03;;;;;;;-143.84;100.00;44119.97;4989354;28;20974;-69
2022/01/08 22:01:55;;;;;;;216.53;20.03;;;;;;;-143.84;100.00;44123.78;4989664;28;20429;-69
2022/01/08 22:04:23;;;;;;;500.67;30.80;;;;;;;-143.84;100.00;44112.34;4989229;28;20491;-69
2022/01/08 22:06:51;;;;;;;223.83;21.03;;;;;;;-143.84;100.00;44114.25;4989492;28;20973;-68
2022/01/08 22:09:19;;;;;;;121.43;15.97;;;;;;;-143.84;100.00;44116.16;4989472;28;21035;-69
2022/01/08 22:11:47;;;;;;;206.90;16.83;;;;;;;-143.84;100.00;44118.06;4986475;28;20453;-69
2022/01/08 22:14:14;;;;;;;484.83;25.27;;;;;;;-143.84;100.00;44106.63;4970009;28;20485;-69
2022/01/08 22:16:41;;;;;;;137.60;15.87;;;;;;;-143.84;100.00;44112.34;4969941;28;20461;-69
2022/01/08 22:19:08;;;;;;;135.43;16.27;;;;;;;-143.84;100.00;44116.16;4970352;28;20444;-69
2022/01/08 22:21:37;;;;;;;122.57;13.87;;;;;;;-143.84;100.00;44104.72;4969503;28;20453;-69
2022/01/08 22:24:05;;;;;;;200.97;15.57;;;;;;;-143.84;100.00;44116.16;4995418;28;20878;-69
2022/01/08 22:26:34;;;;;;;354.67;21.73;;;;;;;-143.84;100.00;44116.16;5007828;28;20864;-69
2022/01/08 22:29:02;;;;;;;287.13;21.07;;;;;;;-143.84;100.00;44100.94;5005595;28;20462;-69
2022/01/08 22:31:29;;;;;;;342.13;20.87;;;;;;;-143.84;100.00;44108.53;5007149;28;20469;-69
2022/01/08 22:33:56;;;;;;;55.03;13.63;;;;;;;-143.84;100.00;44114.25;5008138;28;20447;-70
2022/01/08 22:36:23;;;;;;;307.40;20.90;;;;;;;-143.84;100.00;44116.16;5009078;28;20505;-70
2022/01/08 22:38:52;;;;;;;202.80;17.47;;;;;;;-143.84;100.00;44112.34;5008993;28;20443;-69
2022/01/08 22:41:20;;;;;;;611.27;31.50;;;;;;;-143.84;100.00;44099.03;5008868;28;20486;-69
2022/01/08 22:43:48;;;;;;;231.67;19.47;;;;;;;-143.84;100.00;44108.53;5008916;28;20451;-69
2022/01/08 22:46:16;;;;;;;206.47;21.40;;;;;;;-143.84;100.00;44099.03;5011344;28;20509;-69
2022/01/08 22:48:44;;;;;;;239.97;20.03;;;;;;;-143.84;100.00;44110.44;5012959;28;20839;-69
2022/01/08 22:51:11;;;;;;;225.13;18.37;;;;;;;-143.84;100.00;44099.03;5012561;28;20483;-69
2022/01/08 22:53:38;;;;;;;298.43;18.20;;;;;;;-143.84;100.00;44100.94;5012617;28;20447;-69
2022/01/08 22:56:06;;;;;;;217.93;16.13;;;;;;;-143.84;100.00;44100.94;5012606;28;20476;-69
2022/01/08 22:58:33;;;;;;;228.87;17.70;;;;;;;-143.84;100.00;44104.72;5012385;28;20442;-69